North Palm Beach, FL (33408)

4:27 PM EDT on April 28, 2015 (GMT -0400)
Juno Isles | | Change Station
CLOSE
Current Station
Personal Weather Station
Location: N Palm Beach, FL
Elevation: 39 ft
Nearby Weather Stations

Elev 39 ft 26.86 °N, 80.06 °W | Updated 6 minutes ago

Thunderstorm
Thunderstorm
75.6 °F
Feels Like 77 °F
N
13.5
Wind Variable Wind from ENE

Today
High -- | Low -- °F
--% Chance of Precip.
Yesterday
High -- | Low -- °F
Precip. -- in
6:44 AM 7:51 PM
Waxing Gibbous, 76% visible
Pressure 29.79 in
Visibility 10.0 miles
Clouds Few 1200 ft
Mostly Cloudy 3300 ft
Mostly Cloudy 5000 ft
Heat Index 77 °F
Dew Point 68 °F
Humidity 76%
Rainfall 0.04 in
Snow Depth Not available.
UV 5 out of 12
Pollen 1.00 out of 12
Air Quality Not available.
Flu Activity Local Activity
METAR KPBI 281953Z 04014KT 10SM -RA FEW012 BKN033CB BKN050 23/21 A2979 RMK AO2 RAB09 TSE45 SLP087 OCNL LTGIC DSNT SE-SW CB E-SE MOV E CB DSNT SE-SW P0005 T02330211 $

More Conditions Fewer Conditions

Pressure 29.79 in
Visibility 10.0 miles
Clouds Few 1200 ft
Mostly Cloudy 3300 ft
Mostly Cloudy 5000 ft
Heat Index 77 °F
Dew Point 68 °F
Humidity 76%
Rainfall 0.04 in
Snow Depth Not available.
UV 5 out of 12
Pollen 1.00 out of 12
Air Quality Not available.
Flu Activity Local Activity
METAR KPBI 281953Z 04014KT 10SM -RA FEW012 BKN033CB BKN050 23/21 A2979 RMK AO2 RAB09 TSE45 SLP087 OCNL LTGIC DSNT SE-SW CB E-SE MOV E CB DSNT SE-SW P0005 T02330211 $

More Conditions Fewer Conditions

10-Day Weather Forecast

Almanac

Astronomy

Apr. 28, 2015 Rise Set
Actual Time
Civil Twilight
Nautical Twilight
Astronomical Twilight
Moon
Length of Visible Light
Length of Day
Tomorrow will be .
, % of the Moon is Illuminated

Today's Extremes

State Highs State Lows

Community

WunderPhotos

Upload Photos

1,817,751 photos uploaded!

WunderBlogs® & News

Nearby

Air Quality

  Air Quality AQ Index Pollutant
Not available.

Snow Depth

Station Depth Elevation

Earthquake Activity

City Distance Mag. Time & Date
Minimum magnitude displayed is 2.5.

Coastal Water Temperatures

Place Temperature

Stations

Nearby Weather Stations

Station Location Temp. Windchill Dew Point Humidity Wind Precip. Elev Updated Type